sensor_id;sensor_type;location;lat;lon;timestamp;temperature;humidity
21115;DHT22;10715;48.546;9.896;2022-12-07T00:00:03;1.00;99.90
21115;DHT22;10715;48.546;9.896;2022-12-07T00:02:29;1.00;99.90
21115;DHT22;10715;48.546;9.896;2022-12-07T00:04:56;1.00;99.90
21115;DHT22;10715;48.546;9.896;2022-12-07T00:07:21;1.00;99.90
21115;DHT22;10715;48.546;9.896;2022-12-07T00:09:47;1.00;99.90
21115;DHT22;10715;48.546;9.896;2022-12-07T00:12:13;1.00;99.90
21115;DHT22;10715;48.546;9.896;2022-12-07T00:14:38;1.00;99.90
21115;DHT22;10715;48.546;9.896;2022-12-07T00:17:04;1.00;99.90
21115;DHT22;10715;48.546;9.896;2022-12-07T00:19:30;1.00;99.90
21115;DHT22;10715;48.546;9.896;2022-12-07T00:21:55;1.00;99.90
21115;DHT22;10715;48.546;9.896;2022-12-07T00:24:21;1.00;99.90
21115;DHT22;10715;48.546;9.896;2022-12-07T00:26:47;1.00;99.90
21115;DHT22;10715;48.546;9.896;2022-12-07T00:29:18;1.00;99.90
21115;DHT22;10715;48.546;9.896;2022-12-07T00:31:44;1.00;99.90
21115;DHT22;10715;48.546;9.896;2022-12-07T00:34:16;1.00;99.90
21115;DHT22;10715;48.546;9.896;2022-12-07T00:36:42;1.00;99.90
21115;DHT22;10715;48.546;9.896;2022-12-07T00:39:08;1.00;99.90
21115;DHT22;10715;48.546;9.896;2022-12-07T00:41:34;1.00;99.90
21115;DHT22;10715;48.546;9.896;2022-12-07T00:44:00;1.00;99.90
21115;DHT22;10715;48.546;9.896;2022-12-07T00:46:25;1.00;99.90
21115;DHT22;10715;48.546;9.896;2022-12-07T00:48:52;1.00;99.90
21115;DHT22;10715;48.546;9.896;2022-12-07T00:51:20;1.00;99.90
21115;DHT22;10715;48.546;9.896;2022-12-07T00:53:46;1.00;99.90
21115;DHT22;10715;48.546;9.896;2022-12-07T00:56:14;1.00;99.90
21115;DHT22;10715;48.546;9.896;2022-12-07T00:58:41;0.90;99.90
21115;DHT22;10715;48.546;9.896;2022-12-07T01:01:08;1.00;99.90
21115;DHT22;10715;48.546;9.896;2022-12-07T01:03:34;0.90;99.90
21115;DHT22;10715;48.546;9.896;2022-12-07T01:06:00;0.90;99.90
21115;DHT22;10715;48.546;9.896;2022-12-07T01:08:28;1.00;99.90
21115;DHT22;10715;48.546;9.896;2022-12-07T01:11:05;0.90;99.90
21115;DHT22;10715;48.546;9.896;2022-12-07T01:13:32;1.00;99.90
21115;DHT22;10715;48.546;9.896;2022-12-07T01:16:00;1.00;99.90
21115;DHT22;10715;48.546;9.896;2022-12-07T01:18:30;1.00;99.90
21115;DHT22;10715;48.546;9.896;2022-12-07T01:21:01;1.00;99.90
21115;DHT22;10715;48.546;9.896;2022-12-07T01:23:27;1.00;99.90
21115;DHT22;10715;48.546;9.896;2022-12-07T01:26:01;1.00;99.90
21115;DHT22;10715;48.546;9.896;2022-12-07T01:28:27;1.00;99.90
21115;DHT22;10715;48.546;9.896;2022-12-07T01:30:57;1.00;99.90
21115;DHT22;10715;48.546;9.896;2022-12-07T01:33:23;1.00;99.90
21115;DHT22;10715;48.546;9.896;2022-12-07T01:35:49;1.00;99.90
21115;DHT22;10715;48.546;9.896;2022-12-07T01:38:14;1.00;99.90
21115;DHT22;10715;48.546;9.896;2022-12-07T01:40:40;1.00;99.90
21115;DHT22;10715;48.546;9.896;2022-12-07T01:43:16;1.00;99.90
21115;DHT22;10715;48.546;9.896;2022-12-07T01:45:43;1.00;99.90
21115;DHT22;10715;48.546;9.896;2022-12-07T01:48:11;1.00;99.90
21115;DHT22;10715;48.546;9.896;2022-12-07T01:50:38;1.00;99.90
21115;DHT22;10715;48.546;9.896;2022-12-07T01:53:07;1.00;99.90
21115;DHT22;10715;48.546;9.896;2022-12-07T01:55:39;1.00;99.90
21115;DHT22;10715;48.546;9.896;2022-12-07T01:58:06;1.00;99.90
21115;DHT22;10715;48.546;9.896;2022-12-07T02:00:32;1.00;99.90
21115;DHT22;10715;48.546;9.896;2022-12-07T02:03:11;1.00;99.90
21115;DHT22;10715;48.546;9.896;2022-12-07T02:05:40;1.00;99.90
21115;DHT22;10715;48.546;9.896;2022-12-07T02:08:07;0.90;99.90
21115;DHT22;10715;48.546;9.896;2022-12-07T02:10:33;0.90;99.90
21115;DHT22;10715;48.546;9.896;2022-12-07T02:13:13;0.90;99.90
21115;DHT22;10715;48.546;9.896;2022-12-07T02:29:47;0.80;99.90
21115;DHT22;10715;48.546;9.896;2022-12-07T02:32:42;0.80;99.90
21115;DHT22;10715;48.546;9.896;2022-12-07T02:35:19;0.80;99.90
21115;DHT22;10715;48.546;9.896;2022-12-07T02:40:43;0.80;99.90
21115;DHT22;10715;48.546;9.896;2022-12-07T02:43:32;0.70;99.90
21115;DHT22;10715;48.546;9.896;2022-12-07T02:46:10;0.70;99.90
21115;DHT22;10715;48.546;9.896;2022-12-07T02:48:38;0.70;99.90
21115;DHT22;10715;48.546;9.896;2022-12-07T02:51:05;0.70;99.90
21115;DHT22;10715;48.546;9.896;2022-12-07T02:53:33;0.70;99.90
21115;DHT22;10715;48.546;9.896;2022-12-07T02:59:02;0.70;99.90
21115;DHT22;10715;48.546;9.896;2022-12-07T03:18:25;0.60;99.90
21115;DHT22;10715;48.546;9.896;2022-12-07T03:20:55;0.60;99.90
21115;DHT22;10715;48.546;9.896;2022-12-07T03:23:23;0.60;99.90
21115;DHT22;10715;48.546;9.896;2022-12-07T03:25:54;0.60;99.90
21115;DHT22;10715;48.546;9.896;2022-12-07T03:28:24;0.60;99.90
21115;DHT22;10715;48.546;9.896;2022-12-07T03:31:17;0.60;99.90
21115;DHT22;10715;48.546;9.896;2022-12-07T03:33:49;0.60;99.90
21115;DHT22;10715;48.546;9.896;2022-12-07T03:36:35;0.60;99.90
21115;DHT22;10715;48.546;9.896;2022-12-07T03:41:44;0.60;99.90
21115;DHT22;10715;48.546;9.896;2022-12-07T03:44:10;0.60;99.90
21115;DHT22;10715;48.546;9.896;2022-12-07T03:46:54;0.50;99.90
21115;DHT22;10715;48.546;9.896;2022-12-07T03:49:26;0.50;99.90
21115;DHT22;10715;48.546;9.896;2022-12-07T03:52:11;0.50;99.90
21115;DHT22;10715;48.546;9.896;2022-12-07T03:54:47;0.50;99.90
21115;DHT22;10715;48.546;9.896;2022-12-07T03:57:14;0.50;99.90
21115;DHT22;10715;48.546;9.896;2022-12-07T03:59:40;0.50;99.90
21115;DHT22;10715;48.546;9.896;2022-12-07T04:02:08;0.50;99.90
21115;DHT22;10715;48.546;9.896;2022-12-07T04:04:36;0.50;99.90
21115;DHT22;10715;48.546;9.896;2022-12-07T04:07:02;0.50;99.90
21115;DHT22;10715;48.546;9.896;2022-12-07T04:09:28;0.50;99.90
21115;DHT22;10715;48.546;9.896;2022-12-07T04:11:54;0.50;99.90
21115;DHT22;10715;48.546;9.896;2022-12-07T04:14:19;0.50;99.90
21115;DHT22;10715;48.546;9.896;2022-12-07T04:16:54;0.50;99.90
21115;DHT22;10715;48.546;9.896;2022-12-07T04:19:25;0.40;99.90
21115;DHT22;10715;48.546;9.896;2022-12-07T04:21:51;0.40;99.90
21115;DHT22;10715;48.546;9.896;2022-12-07T04:24:16;0.40;99.90
21115;DHT22;10715;48.546;9.896;2022-12-07T04:26:43;0.40;99.90
21115;DHT22;10715;48.546;9.896;2022-12-07T04:29:09;0.40;99.90
21115;DHT22;10715;48.546;9.896;2022-12-07T04:31:36;0.40;99.90
21115;DHT22;10715;48.546;9.896;2022-12-07T04:34:03;0.30;99.90
21115;DHT22;10715;48.546;9.896;2022-12-07T04:36:29;0.30;99.90
21115;DHT22;10715;48.546;9.896;2022-12-07T04:38:55;0.30;99.90
21115;DHT22;10715;48.546;9.896;2022-12-07T04:41:22;0.30;99.90
21115;DHT22;10715;48.546;9.896;2022-12-07T04:44:03;0.30;99.90
21115;DHT22;10715;48.546;9.896;2022-12-07T04:46:30;0.30;99.90
21115;DHT22;10715;48.546;9.896;2022-12-07T04:48:56;0.30;99.90
21115;DHT22;10715;48.546;9.896;2022-12-07T04:51:28;0.30;99.90
21115;DHT22;10715;48.546;9.896;2022-12-07T04:53:54;0.30;99.90
21115;DHT22;10715;48.546;9.896;2022-12-07T04:56:21;0.30;99.90
21115;DHT22;10715;48.546;9.896;2022-12-07T04:58:48;0.30;99.90
21115;DHT22;10715;48.546;9.896;2022-12-07T05:01:15;0.20;99.90
21115;DHT22;10715;48.546;9.896;2022-12-07T05:03:41;0.20;99.90
21115;DHT22;10715;48.546;9.896;2022-12-07T05:06:08;0.20;99.90
21115;DHT22;10715;48.546;9.896;2022-12-07T05:08:34;0.20;99.90
21115;DHT22;10715;48.546;9.896;2022-12-07T05:11:01;0.20;99.90
21115;DHT22;10715;48.546;9.896;2022-12-07T05:13:27;0.20;99.90
21115;DHT22;10715;48.546;9.896;2022-12-07T05:15:53;0.10;99.90
21115;DHT22;10715;48.546;9.896;2022-12-07T05:18:18;0.10;99.90
21115;DHT22;10715;48.546;9.896;2022-12-07T05:20:45;0.10;99.90
21115;DHT22;10715;48.546;9.896;2022-12-07T05:23:11;0.10;99.90
21115;DHT22;10715;48.546;9.896;2022-12-07T05:25:37;0.10;99.90
21115;DHT22;10715;48.546;9.896;2022-12-07T05:28:04;0.00;99.90
21115;DHT22;10715;48.546;9.896;2022-12-07T05:30:30;0.00;99.90
21115;DHT22;10715;48.546;9.896;2022-12-07T05:32:55;0.00;99.90
21115;DHT22;10715;48.546;9.896;2022-12-07T05:35:21;0.00;99.90
21115;DHT22;10715;48.546;9.896;2022-12-07T05:37:47;0.00;99.90
21115;DHT22;10715;48.546;9.896;2022-12-07T05:40:14;0.00;99.90
21115;DHT22;10715;48.546;9.896;2022-12-07T05:42:40;-0.10;99.90
21115;DHT22;10715;48.546;9.896;2022-12-07T05:45:07;-0.10;99.90
21115;DHT22;10715;48.546;9.896;2022-12-07T05:47:33;-0.10;99.90
21115;DHT22;10715;48.546;9.896;2022-12-07T05:49:58;-0.20;99.90
21115;DHT22;10715;48.546;9.896;2022-12-07T05:52:24;-0.20;99.90
21115;DHT22;10715;48.546;9.896;2022-12-07T05:54:51;-0.30;99.90
21115;DHT22;10715;48.546;9.896;2022-12-07T05:57:17;-0.40;99.90
21115;DHT22;10715;48.546;9.896;2022-12-07T05:59:43;-0.60;99.90
21115;DHT22;10715;48.546;9.896;2022-12-07T06:02:11;-0.70;99.90
21115;DHT22;10715;48.546;9.896;2022-12-07T06:04:45;-0.70;99.90
21115;DHT22;10715;48.546;9.896;2022-12-07T06:07:13;-0.80;99.90
21115;DHT22;10715;48.546;9.896;2022-12-07T06:09:39;-0.90;99.90
21115;DHT22;10715;48.546;9.896;2022-12-07T06:12:05;-0.90;99.90
21115;DHT22;10715;48.546;9.896;2022-12-07T06:14:50;-1.00;99.90
21115;DHT22;10715;48.546;9.896;2022-12-07T06:17:16;-1.00;99.90
21115;DHT22;10715;48.546;9.896;2022-12-07T06:19:42;-1.00;99.90
21115;DHT22;10715;48.546;9.896;2022-12-07T06:22:08;-1.10;99.90
21115;DHT22;10715;48.546;9.896;2022-12-07T06:24:35;-1.10;99.90
21115;DHT22;10715;48.546;9.896;2022-12-07T06:27:01;-1.10;99.90
21115;DHT22;10715;48.546;9.896;2022-12-07T06:29:27;-1.00;99.90
21115;DHT22;10715;48.546;9.896;2022-12-07T06:31:52;-1.00;99.90
21115;DHT22;10715;48.546;9.896;2022-12-07T06:34:20;-0.90;99.90
21115;DHT22;10715;48.546;9.896;2022-12-07T06:36:48;-0.80;99.90
21115;DHT22;10715;48.546;9.896;2022-12-07T06:39:24;-0.80;99.90
21115;DHT22;10715;48.546;9.896;2022-12-07T06:41:51;-0.80;99.90
21115;DHT22;10715;48.546;9.896;2022-12-07T06:44:17;-0.70;99.90
21115;DHT22;10715;48.546;9.896;2022-12-07T06:46:43;-0.70;99.90
21115;DHT22;10715;48.546;9.896;2022-12-07T06:49:09;-0.70;99.90
21115;DHT22;10715;48.546;9.896;2022-12-07T06:51:35;-0.60;99.90
21115;DHT22;10715;48.546;9.896;2022-12-07T06:54:03;-0.60;99.90
21115;DHT22;10715;48.546;9.896;2022-12-07T06:56:29;-0.60;99.90
21115;DHT22;10715;48.546;9.896;2022-12-07T06:58:55;-0.50;99.90
21115;DHT22;10715;48.546;9.896;2022-12-07T07:01:21;-0.50;99.90
21115;DHT22;10715;48.546;9.896;2022-12-07T07:03:46;-0.50;99.90
21115;DHT22;10715;48.546;9.896;2022-12-07T07:06:13;-0.50;99.90
21115;DHT22;10715;48.546;9.896;2022-12-07T07:08:40;-0.60;99.90
21115;DHT22;10715;48.546;9.896;2022-12-07T07:11:07;-0.60;99.90
21115;DHT22;10715;48.546;9.896;2022-12-07T07:13:33;-0.60;99.90
21115;DHT22;10715;48.546;9.896;2022-12-07T07:15:58;-0.50;99.90
21115;DHT22;10715;48.546;9.896;2022-12-07T07:18:25;-0.50;99.90
21115;DHT22;10715;48.546;9.896;2022-12-07T07:20:51;-0.50;99.90
21115;DHT22;10715;48.546;9.896;2022-12-07T07:23:17;-0.40;99.90
21115;DHT22;10715;48.546;9.896;2022-12-07T07:25:44;-0.40;99.90
21115;DHT22;10715;48.546;9.896;2022-12-07T07:28:10;-0.40;99.90
21115;DHT22;10715;48.546;9.896;2022-12-07T07:30:36;-0.30;99.90
21115;DHT22;10715;48.546;9.896;2022-12-07T07:33:03;-0.30;99.90
21115;DHT22;10715;48.546;9.896;2022-12-07T07:35:30;-0.30;99.90
21115;DHT22;10715;48.546;9.896;2022-12-07T07:37:56;-0.20;99.90
21115;DHT22;10715;48.546;9.896;2022-12-07T07:40:22;-0.20;99.90
21115;DHT22;10715;48.546;9.896;2022-12-07T07:42:53;-0.10;99.90
21115;DHT22;10715;48.546;9.896;2022-12-07T07:45:20;-0.10;99.90
21115;DHT22;10715;48.546;9.896;2022-12-07T07:47:46;0.00;99.90
21115;DHT22;10715;48.546;9.896;2022-12-07T07:50:13;0.00;99.90
21115;DHT22;10715;48.546;9.896;2022-12-07T07:52:39;0.10;99.90
21115;DHT22;10715;48.546;9.896;2022-12-07T07:55:05;0.20;99.90
21115;DHT22;10715;48.546;9.896;2022-12-07T07:57:31;0.20;99.90
21115;DHT22;10715;48.546;9.896;2022-12-07T07:59:57;0.30;99.90
21115;DHT22;10715;48.546;9.896;2022-12-07T08:02:23;0.30;99.90
21115;DHT22;10715;48.546;9.896;2022-12-07T08:04:48;0.40;99.90
21115;DHT22;10715;48.546;9.896;2022-12-07T08:07:15;0.50;99.90
21115;DHT22;10715;48.546;9.896;2022-12-07T08:09:41;0.50;99.90
21115;DHT22;10715;48.546;9.896;2022-12-07T08:12:10;0.60;99.90
21115;DHT22;10715;48.546;9.896;2022-12-07T08:14:35;0.70;99.90
21115;DHT22;10715;48.546;9.896;2022-12-07T08:17:01;0.70;99.90
21115;DHT22;10715;48.546;9.896;2022-12-07T08:19:27;0.70;99.90
21115;DHT22;10715;48.546;9.896;2022-12-07T08:21:53;0.70;99.90
21115;DHT22;10715;48.546;9.896;2022-12-07T08:24:20;0.80;99.90
21115;DHT22;10715;48.546;9.896;2022-12-07T08:26:46;0.80;99.90
21115;DHT22;10715;48.546;9.896;2022-12-07T08:29:12;0.80;99.90
21115;DHT22;10715;48.546;9.896;2022-12-07T08:31:38;0.80;99.90
21115;DHT22;10715;48.546;9.896;2022-12-07T08:34:03;0.90;99.90
21115;DHT22;10715;48.546;9.896;2022-12-07T08:36:29;0.90;99.90
21115;DHT22;10715;48.546;9.896;2022-12-07T08:38:55;1.00;99.90
21115;DHT22;10715;48.546;9.896;2022-12-07T08:41:20;1.00;99.90
21115;DHT22;10715;48.546;9.896;2022-12-07T08:43:46;1.10;99.90
21115;DHT22;10715;48.546;9.896;2022-12-07T08:48:46;1.10;99.90
21115;DHT22;10715;48.546;9.896;2022-12-07T08:51:14;1.20;99.90
21115;DHT22;10715;48.546;9.896;2022-12-07T08:53:40;1.30;99.90
21115;DHT22;10715;48.546;9.896;2022-12-07T08:56:07;1.40;99.90
21115;DHT22;10715;48.546;9.896;2022-12-07T08:58:34;1.50;99.90
21115;DHT22;10715;48.546;9.896;2022-12-07T09:01:00;1.60;99.90
21115;DHT22;10715;48.546;9.896;2022-12-07T09:03:26;1.70;99.90
21115;DHT22;10715;48.546;9.896;2022-12-07T09:05:53;1.80;99.90
21115;DHT22;10715;48.546;9.896;2022-12-07T09:08:19;1.80;99.90
21115;DHT22;10715;48.546;9.896;2022-12-07T09:10:46;1.90;99.90
21115;DHT22;10715;48.546;9.896;2022-12-07T09:13:13;1.90;99.90
21115;DHT22;10715;48.546;9.896;2022-12-07T09:15:38;2.00;99.90
21115;DHT22;10715;48.546;9.896;2022-12-07T09:18:05;2.00;99.90
21115;DHT22;10715;48.546;9.896;2022-12-07T09:20:30;2.00;99.90
21115;DHT22;10715;48.546;9.896;2022-12-07T09:22:56;2.10;99.90
21115;DHT22;10715;48.546;9.896;2022-12-07T09:25:22;2.10;99.90
21115;DHT22;10715;48.546;9.896;2022-12-07T09:27:48;2.20;99.90
21115;DHT22;10715;48.546;9.896;2022-12-07T09:30:13;2.30;99.90
21115;DHT22;10715;48.546;9.896;2022-12-07T09:32:39;2.40;99.90
21115;DHT22;10715;48.546;9.896;2022-12-07T09:35:05;2.50;99.90
21115;DHT22;10715;48.546;9.896;2022-12-07T09:37:31;2.60;99.90
21115;DHT22;10715;48.546;9.896;2022-12-07T09:40:00;2.70;99.90
21115;DHT22;10715;48.546;9.896;2022-12-07T09:42:34;2.80;99.90
21115;DHT22;10715;48.546;9.896;2022-12-07T09:45:02;2.80;99.90
21115;DHT22;10715;48.546;9.896;2022-12-07T09:47:30;2.90;99.90
21115;DHT22;10715;48.546;9.896;2022-12-07T09:50:04;2.90;99.90
21115;DHT22;10715;48.546;9.896;2022-12-07T09:52:30;2.90;99.90
21115;DHT22;10715;48.546;9.896;2022-12-07T09:54:57;2.90;99.90
21115;DHT22;10715;48.546;9.896;2022-12-07T09:57:33;3.00;99.90
21115;DHT22;10715;48.546;9.896;2022-12-07T10:00:10;3.10;99.90
21115;DHT22;10715;48.546;9.896;2022-12-07T10:02:40;3.10;99.90
21115;DHT22;10715;48.546;9.896;2022-12-07T10:05:15;3.10;99.90
21115;DHT22;10715;48.546;9.896;2022-12-07T10:07:42;3.20;99.90
21115;DHT22;10715;48.546;9.896;2022-12-07T10:10:17;3.20;99.90
21115;DHT22;10715;48.546;9.896;2022-12-07T10:13:09;3.20;99.90
21115;DHT22;10715;48.546;9.896;2022-12-07T10:15:47;3.30;99.90
21115;DHT22;10715;48.546;9.896;2022-12-07T10:18:26;3.40;99.90
21115;DHT22;10715;48.546;9.896;2022-12-07T10:21:03;3.50;99.90
21115;DHT22;10715;48.546;9.896;2022-12-07T10:23:30;3.50;99.90
21115;DHT22;10715;48.546;9.896;2022-12-07T10:25:56;3.40;99.90
21115;DHT22;10715;48.546;9.896;2022-12-07T10:28:22;3.50;99.90
21115;DHT22;10715;48.546;9.896;2022-12-07T10:31:00;3.50;99.90
21115;DHT22;10715;48.546;9.896;2022-12-07T10:33:36;3.60;99.90
21115;DHT22;10715;48.546;9.896;2022-12-07T10:38:49;3.60;99.90
21115;DHT22;10715;48.546;9.896;2022-12-07T10:41:15;3.60;99.90
21115;DHT22;10715;48.546;9.896;2022-12-07T10:43:50;3.60;99.90
21115;DHT22;10715;48.546;9.896;2022-12-07T10:46:43;3.70;99.90
21115;DHT22;10715;48.546;9.896;2022-12-07T10:49:26;3.60;99.90
21115;DHT22;10715;48.546;9.896;2022-12-07T10:55:08;3.70;99.90
21115;DHT22;10715;48.546;9.896;2022-12-07T11:00:25;3.80;99.90
21115;DHT22;10715;48.546;9.896;2022-12-07T11:03:03;3.80;99.90
21115;DHT22;10715;48.546;9.896;2022-12-07T11:08:31;3.70;99.90
21115;DHT22;10715;48.546;9.896;2022-12-07T11:11:13;3.60;99.90
21115;DHT22;10715;48.546;9.896;2022-12-07T11:14:40;3.60;99.90
21115;DHT22;10715;48.546;9.896;2022-12-07T11:17:13;3.60;99.90
21115;DHT22;10715;48.546;9.896;2022-12-07T11:22:18;3.60;99.90
21115;DHT22;10715;48.546;9.896;2022-12-07T11:25:23;3.50;99.90
21115;DHT22;10715;48.546;9.896;2022-12-07T11:28:13;3.40;99.90
21115;DHT22;10715;48.546;9.896;2022-12-07T11:30:42;3.50;99.90
21115;DHT22;10715;48.546;9.896;2022-12-07T11:33:36;3.40;99.90
21115;DHT22;10715;48.546;9.896;2022-12-07T11:36:08;3.50;99.90
21115;DHT22;10715;48.546;9.896;2022-12-07T11:38:58;3.50;99.90
21115;DHT22;10715;48.546;9.896;2022-12-07T11:41:34;3.50;99.90
21115;DHT22;10715;48.546;9.896;2022-12-07T11:46:51;3.60;99.90
21115;DHT22;10715;48.546;9.896;2022-12-07T11:52:06;3.70;99.90
21115;DHT22;10715;48.546;9.896;2022-12-07T11:54:41;3.70;99.90
21115;DHT22;10715;48.546;9.896;2022-12-07T11:57:15;3.70;99.90
21115;DHT22;10715;48.546;9.896;2022-12-07T11:59:47;3.80;99.90
21115;DHT22;10715;48.546;9.896;2022-12-07T12:02:31;3.80;99.90
21115;DHT22;10715;48.546;9.896;2022-12-07T12:05:18;3.90;99.90
21115;DHT22;10715;48.546;9.896;2022-12-07T12:10:50;3.90;99.90
21115;DHT22;10715;48.546;9.896;2022-12-07T12:16:38;3.80;99.90
21115;DHT22;10715;48.546;9.896;2022-12-07T12:19:38;3.80;99.90
21115;DHT22;10715;48.546;9.896;2022-12-07T12:22:17;3.80;99.90
21115;DHT22;10715;48.546;9.896;2022-12-07T12:24:46;3.80;99.90
21115;DHT22;10715;48.546;9.896;2022-12-07T12:27:34;3.80;99.90
21115;DHT22;10715;48.546;9.896;2022-12-07T12:30:06;3.70;99.90
21115;DHT22;10715;48.546;9.896;2022-12-07T12:35:26;3.60;99.90
21115;DHT22;10715;48.546;9.896;2022-12-07T12:37:54;3.60;99.90
21115;DHT22;10715;48.546;9.896;2022-12-07T12:48:54;3.70;99.90
21115;DHT22;10715;48.546;9.896;2022-12-07T12:51:41;3.70;99.90
21115;DHT22;10715;48.546;9.896;2022-12-07T12:54:35;3.70;99.90
21115;DHT22;10715;48.546;9.896;2022-12-07T12:57:29;3.60;99.90
21115;DHT22;10715;48.546;9.896;2022-12-07T12:59:56;3.60;99.90
21115;DHT22;10715;48.546;9.896;2022-12-07T13:04:55;3.60;99.90
21115;DHT22;10715;48.546;9.896;2022-12-07T13:13:04;3.70;99.90
21115;DHT22;10715;48.546;9.896;2022-12-07T13:15:39;3.70;99.90
21115;DHT22;10715;48.546;9.896;2022-12-07T13:26:18;3.50;99.90
21115;DHT22;10715;48.546;9.896;2022-12-07T13:28:48;3.40;99.90
21115;DHT22;10715;48.546;9.896;2022-12-07T13:33:45;3.30;99.90
21115;DHT22;10715;48.546;9.896;2022-12-07T13:36:25;3.30;99.90
21115;DHT22;10715;48.546;9.896;2022-12-07T13:41:20;3.20;99.90
21115;DHT22;10715;48.546;9.896;2022-12-07T13:46:19;3.10;99.90
21115;DHT22;10715;48.546;9.896;2022-12-07T13:48:48;3.10;99.90
21115;DHT22;10715;48.546;9.896;2022-12-07T13:51:24;3.10;99.90
21115;DHT22;10715;48.546;9.896;2022-12-07T13:53:53;3.10;99.90
21115;DHT22;10715;48.546;9.896;2022-12-07T13:56:21;3.10;99.90
21115;DHT22;10715;48.546;9.896;2022-12-07T13:58:47;3.10;99.90
21115;DHT22;10715;48.546;9.896;2022-12-07T14:01:13;3.00;99.90
21115;DHT22;10715;48.546;9.896;2022-12-07T14:03:40;3.00;99.90
21115;DHT22;10715;48.546;9.896;2022-12-07T14:08:41;2.90;99.90
21115;DHT22;10715;48.546;9.896;2022-12-07T14:11:27;2.80;99.90
21115;DHT22;10715;48.546;9.896;2022-12-07T14:14:00;2.80;99.90
21115;DHT22;10715;48.546;9.896;2022-12-07T14:18:59;2.80;99.90
21115;DHT22;10715;48.546;9.896;2022-12-07T14:21:30;2.80;99.90
21115;DHT22;10715;48.546;9.896;2022-12-07T14:24:16;2.80;99.90
21115;DHT22;10715;48.546;9.896;2022-12-07T14:26:49;2.80;99.90
21115;DHT22;10715;48.546;9.896;2022-12-07T14:29:29;2.70;99.90
21115;DHT22;10715;48.546;9.896;2022-12-07T14:31:57;2.70;99.90
21115;DHT22;10715;48.546;9.896;2022-12-07T14:34:24;2.60;99.90
21115;DHT22;10715;48.546;9.896;2022-12-07T14:36:51;2.60;99.90
21115;DHT22;10715;48.546;9.896;2022-12-07T14:39:16;2.60;99.90
21115;DHT22;10715;48.546;9.896;2022-12-07T14:41:42;2.50;99.90
21115;DHT22;10715;48.546;9.896;2022-12-07T14:44:25;2.50;99.90
21115;DHT22;10715;48.546;9.896;2022-12-07T14:46:51;2.50;99.90
21115;DHT22;10715;48.546;9.896;2022-12-07T14:49:18;2.50;99.90
21115;DHT22;10715;48.546;9.896;2022-12-07T14:51:46;2.40;99.90
21115;DHT22;10715;48.546;9.896;2022-12-07T14:54:17;2.40;99.90
21115;DHT22;10715;48.546;9.896;2022-12-07T14:56:43;2.30;99.90
21115;DHT22;10715;48.546;9.896;2022-12-07T14:59:10;2.30;99.90
21115;DHT22;10715;48.546;9.896;2022-12-07T15:01:36;2.30;99.90
21115;DHT22;10715;48.546;9.896;2022-12-07T15:04:02;2.30;99.90
21115;DHT22;10715;48.546;9.896;2022-12-07T15:06:28;2.20;99.90
21115;DHT22;10715;48.546;9.896;2022-12-07T15:08:53;2.20;99.90
21115;DHT22;10715;48.546;9.896;2022-12-07T15:11:20;2.10;99.90
21115;DHT22;10715;48.546;9.896;2022-12-07T15:13:46;2.10;99.90
21115;DHT22;10715;48.546;9.896;2022-12-07T15:16:31;2.00;99.90
21115;DHT22;10715;48.546;9.896;2022-12-07T15:18:57;2.00;99.90
21115;DHT22;10715;48.546;9.896;2022-12-07T15:21:22;1.90;99.90
21115;DHT22;10715;48.546;9.896;2022-12-07T15:23:48;1.90;99.90
21115;DHT22;10715;48.546;9.896;2022-12-07T15:26:14;1.90;99.90
21115;DHT22;10715;48.546;9.896;2022-12-07T15:28:40;1.80;99.90
21115;DHT22;10715;48.546;9.896;2022-12-07T15:31:14;1.80;99.90
21115;DHT22;10715;48.546;9.896;2022-12-07T15:33:40;1.80;99.90
21115;DHT22;10715;48.546;9.896;2022-12-07T15:36:06;1.80;99.90
21115;DHT22;10715;48.546;9.896;2022-12-07T15:38:31;1.70;99.90
21115;DHT22;10715;48.546;9.896;2022-12-07T15:40:57;1.70;99.90
21115;DHT22;10715;48.546;9.896;2022-12-07T15:43:23;1.70;99.90
21115;DHT22;10715;48.546;9.896;2022-12-07T15:46:08;1.70;99.90
21115;DHT22;10715;48.546;9.896;2022-12-07T15:48:33;1.70;99.90
21115;DHT22;10715;48.546;9.896;2022-12-07T15:51:08;1.60;99.90
21115;DHT22;10715;48.546;9.896;2022-12-07T15:53:35;1.60;99.90
21115;DHT22;10715;48.546;9.896;2022-12-07T15:56:06;1.60;99.90
21115;DHT22;10715;48.546;9.896;2022-12-07T15:58:32;1.60;99.90
21115;DHT22;10715;48.546;9.896;2022-12-07T16:00:57;1.60;99.90
21115;DHT22;10715;48.546;9.896;2022-12-07T16:03:23;1.60;99.90
21115;DHT22;10715;48.546;9.896;2022-12-07T16:05:50;1.60;99.90
21115;DHT22;10715;48.546;9.896;2022-12-07T16:08:16;1.50;99.90
21115;DHT22;10715;48.546;9.896;2022-12-07T16:10:41;1.50;99.90
21115;DHT22;10715;48.546;9.896;2022-12-07T16:13:09;1.50;99.90
21115;DHT22;10715;48.546;9.896;2022-12-07T16:15:41;1.50;99.90
21115;DHT22;10715;48.546;9.896;2022-12-07T16:18:08;1.50;99.90
21115;DHT22;10715;48.546;9.896;2022-12-07T16:20:34;1.40;99.90
21115;DHT22;10715;48.546;9.896;2022-12-07T16:23:00;1.40;99.90
21115;DHT22;10715;48.546;9.896;2022-12-07T16:25:25;1.40;99.90
21115;DHT22;10715;48.546;9.896;2022-12-07T16:27:52;1.30;99.90
21115;DHT22;10715;48.546;9.896;2022-12-07T16:30:18;1.30;99.90
21115;DHT22;10715;48.546;9.896;2022-12-07T16:32:44;1.30;99.90
21115;DHT22;10715;48.546;9.896;2022-12-07T16:35:10;1.30;99.90
21115;DHT22;10715;48.546;9.896;2022-12-07T16:37:37;1.20;99.90
21115;DHT22;10715;48.546;9.896;2022-12-07T16:40:02;1.20;99.90
21115;DHT22;10715;48.546;9.896;2022-12-07T16:42:32;1.20;99.90
21115;DHT22;10715;48.546;9.896;2022-12-07T16:44:59;1.10;99.90
21115;DHT22;10715;48.546;9.896;2022-12-07T16:47:24;1.10;99.90
21115;DHT22;10715;48.546;9.896;2022-12-07T16:49:50;1.10;99.90
21115;DHT22;10715;48.546;9.896;2022-12-07T16:52:20;1.10;99.90
21115;DHT22;10715;48.546;9.896;2022-12-07T16:54:47;1.10;99.90
21115;DHT22;10715;48.546;9.896;2022-12-07T16:57:12;1.00;99.90
21115;DHT22;10715;48.546;9.896;2022-12-07T16:59:38;1.00;99.90
21115;DHT22;10715;48.546;9.896;2022-12-07T17:02:04;1.00;99.90
21115;DHT22;10715;48.546;9.896;2022-12-07T17:04:33;1.00;99.90
21115;DHT22;10715;48.546;9.896;2022-12-07T17:06:59;1.00;99.90
21115;DHT22;10715;48.546;9.896;2022-12-07T17:09:25;1.00;99.90
21115;DHT22;10715;48.546;9.896;2022-12-07T17:11:51;1.00;99.90
21115;DHT22;10715;48.546;9.896;2022-12-07T17:14:17;1.00;99.90
21115;DHT22;10715;48.546;9.896;2022-12-07T17:17:01;0.90;99.90
21115;DHT22;10715;48.546;9.896;2022-12-07T17:19:28;0.90;99.90
21115;DHT22;10715;48.546;9.896;2022-12-07T17:21:54;0.90;99.90
21115;DHT22;10715;48.546;9.896;2022-12-07T17:24:19;0.90;99.90
21115;DHT22;10715;48.546;9.896;2022-12-07T17:26:46;0.90;99.90
21115;DHT22;10715;48.546;9.896;2022-12-07T17:29:14;0.80;99.90
21115;DHT22;10715;48.546;9.896;2022-12-07T17:31:40;0.80;99.90
21115;DHT22;10715;48.546;9.896;2022-12-07T17:34:13;0.70;99.90
21115;DHT22;10715;48.546;9.896;2022-12-07T17:36:40;0.70;99.90
21115;DHT22;10715;48.546;9.896;2022-12-07T17:39:07;0.70;99.90
21115;DHT22;10715;48.546;9.896;2022-12-07T17:41:35;0.70;99.90
21115;DHT22;10715;48.546;9.896;2022-12-07T17:44:21;0.70;99.90
21115;DHT22;10715;48.546;9.896;2022-12-07T17:46:49;0.60;99.90